Time;durP1;ratioP1;P1;durP2;ratioP2;P2;SDS_P1;SDS_P2;PMS_P1;PMS_P2;Temp;Humidity;BMP_temperature;BMP_pressure;BME280_temperature;BME280_humidity;BME280_pressure;Samples;Min_cycle;Max_cycle;Signal;HPM_P1;HPM_P2
2022/08/19 00:02:02;;;;;;;17.20;12.00;;;22.10;99.90;;;23.15;65.06;100226.75;4985328;28;21280;-70
2022/08/19 00:04:36;;;;;;;18.60;12.53;;;22.10;99.90;;;23.08;65.09;100235.75;4991089;28;20625;-69
2022/08/19 00:07:06;;;;;;;21.10;13.03;;;22.10;99.90;;;23.13;65.36;100228.78;4987872;28;20714;-69
2022/08/19 00:09:33;;;;;;;18.13;12.00;;;22.20;99.90;;;23.37;64.25;100234.59;4990206;28;20610;-68
2022/08/19 00:12:01;;;;;;;17.63;12.03;;;22.20;99.90;;;23.53;63.39;100224.38;4990358;28;20678;-68
2022/08/19 00:14:31;;;;;;;16.67;11.80;;;22.20;99.90;;;23.53;63.55;100218.25;4958497;28;20984;-69
2022/08/19 00:16:58;;;;;;;24.07;15.50;;;22.20;99.90;;;23.53;63.45;100216.38;4973834;28;21211;-68
2022/08/19 00:19:25;;;;;;;19.70;13.40;;;22.20;99.90;;;23.61;63.22;100199.41;4974720;28;20623;-68
2022/08/19 00:21:53;;;;;;;18.00;12.60;;;22.20;99.90;;;23.64;63.07;100196.31;4973492;28;23596;-71
2022/08/19 00:24:20;;;;;;;21.37;14.47;;;22.30;99.90;;;23.58;63.47;100195.28;4975168;28;20607;-68
2022/08/19 00:26:48;;;;;;;21.77;13.90;;;22.20;99.90;;;23.55;63.30;100192.22;4972992;28;20611;-66
2022/08/19 00:29:18;;;;;;;22.00;14.03;;;22.20;99.90;;;23.51;63.52;100183.00;4973814;28;20631;-69
2022/08/19 00:31:46;;;;;;;19.90;13.20;;;22.20;99.90;;;23.56;63.24;100191.19;4974313;28;21023;-69
2022/08/19 00:34:14;;;;;;;21.90;13.33;;;22.20;99.90;;;23.59;63.52;100188.13;4973234;28;20643;-68
2022/08/19 00:36:42;;;;;;;21.37;13.30;;;22.20;99.90;;;23.56;63.37;100196.50;4975946;28;20669;-66
2022/08/19 00:39:10;;;;;;;21.13;13.10;;;22.20;99.90;;;23.49;63.74;100193.06;4993106;28;20619;-68
2022/08/19 00:41:38;;;;;;;16.80;11.43;;;22.10;99.90;;;23.55;63.28;100186.91;4992562;28;20666;-69
2022/08/19 00:44:13;;;;;;;20.67;13.10;;;22.10;99.90;;;23.58;62.96;100179.31;4994166;28;20614;-68
2022/08/19 00:46:43;;;;;;;22.40;13.97;;;22.20;99.90;;;23.53;63.28;100184.44;4993309;28;20607;-67
2022/08/19 00:49:32;;;;;;;17.47;11.83;;;22.20;99.90;;;23.49;63.27;100169.09;4994646;28;20623;-68
2022/08/19 00:52:08;;;;;;;18.50;12.50;;;22.10;99.90;;;23.50;63.31;100176.88;4993234;28;20626;-68
2022/08/19 00:54:37;;;;;;;18.00;11.90;;;22.10;99.90;;;23.57;62.72;100175.03;4979371;28;20649;-68
2022/08/19 00:57:09;;;;;;;17.00;11.47;;;22.10;99.90;;;23.60;62.69;100179.94;4976621;28;20706;-69
2022/08/19 00:59:39;;;;;;;19.63;12.37;;;22.20;99.90;;;23.54;63.01;100171.94;4977808;28;20635;-69
2022/08/19 01:02:27;;;;;;;16.60;11.97;;;22.10;99.90;;;23.55;62.87;100178.91;4991274;28;20670;-68
2022/08/19 01:04:55;;;;;;;15.90;11.60;;;22.10;99.90;;;23.56;63.24;100175.22;4992431;28;20619;-69
2022/08/19 01:07:22;;;;;;;18.20;12.37;;;22.20;99.90;;;23.46;63.19;100175.63;4984014;28;20627;-70
2022/08/19 01:09:50;;;;;;;19.77;13.80;;;22.10;99.90;;;23.57;63.06;100187.53;4956391;28;20612;-71
2022/08/19 01:12:18;;;;;;;19.40;13.03;;;22.10;99.90;;;23.55;62.92;100189.56;4973330;28;21015;-68
2022/08/19 01:14:47;;;;;;;20.27;12.50;;;22.20;99.90;;;23.52;63.27;100177.47;4981129;28;21060;-68
2022/08/19 01:17:15;;;;;;;17.60;12.30;;;22.10;99.90;;;23.51;62.88;100181.16;4988485;28;20626;-68
2022/08/19 01:19:46;;;;;;;19.93;13.70;;;22.10;99.90;;;23.40;63.51;100183.63;4972753;28;20642;-69
2022/08/19 01:22:21;;;;;;;18.53;11.47;;;22.10;99.90;;;23.48;63.26;100170.09;4954636;28;21264;-68
2022/08/19 01:24:57;;;;;;;19.53;13.00;;;22.10;99.90;;;23.33;63.97;100154.31;4972365;28;20636;-71
2022/08/19 01:27:25;;;;;;;17.03;12.40;;;22.10;99.90;;;23.38;63.70;100162.53;4989126;28;21183;-68
2022/08/19 01:29:55;;;;;;;21.37;12.80;;;22.10;99.90;;;23.24;64.34;100165.31;4991410;28;21244;-68
2022/08/19 01:32:23;;;;;;;20.07;13.27;;;22.00;99.90;;;23.23;64.41;100172.50;4991620;28;20681;-68
2022/08/19 01:35:03;;;;;;;17.60;12.37;;;21.90;99.90;;;23.24;64.32;100168.81;4992031;28;21014;-68
2022/08/19 01:37:42;;;;;;;25.10;15.23;;;21.90;99.90;;;23.34;64.08;100179.09;4990601;28;20642;-69
2022/08/19 01:40:10;;;;;;;21.37;14.03;;;21.90;99.90;;;23.34;64.02;100181.78;4992020;28;21018;-70
2022/08/19 01:42:37;;;;;;;22.57;14.03;;;22.00;99.90;;;23.38;64.15;100183.00;4956557;28;20671;-68
2022/08/19 01:45:07;;;;;;;19.63;13.20;;;22.00;99.90;;;23.37;63.59;100182.19;4972379;28;20632;-68
2022/08/19 01:47:37;;;;;;;19.67;13.60;;;22.00;99.90;;;23.30;64.36;100178.66;4961124;28;20642;-68
2022/08/19 01:50:07;;;;;;;20.43;12.80;;;22.00;99.90;;;;;;4984068;28;21000;-69
2022/08/19 01:52:43;;;;;;;18.40;12.47;;;22.00;99.90;;;23.30;64.24;100181.31;4985062;28;20667;-70
2022/08/19 01:55:20;;;;;;;17.23;12.03;;;22.00;99.90;;;23.35;64.28;100188.72;4959615;28;21161;-68
2022/08/19 01:57:57;;;;;;;22.40;12.87;;;22.00;99.90;;;23.26;64.37;100189.91;4991328;28;20661;-69
2022/08/19 02:00:28;;;;;;;20.47;13.10;;;22.00;99.90;;;23.27;64.19;100196.88;4991981;28;21216;-69
2022/08/19 02:02:55;;;;;;;22.03;14.47;;;22.00;99.90;;;23.28;64.45;100193.16;4984082;28;20667;-70
2022/08/19 02:05:22;;;;;;;23.10;14.67;;;22.00;99.90;;;23.27;64.44;100191.56;4968133;28;20638;-69
2022/08/19 02:07:49;;;;;;;22.90;15.00;;;22.00;99.90;;;23.29;63.97;100185.00;4971109;28;20714;-68
2022/08/19 02:10:21;;;;;;;22.30;13.77;;;22.00;99.90;;;23.31;63.86;100180.31;4983911;28;20639;-68
2022/08/19 02:12:49;;;;;;;21.80;11.97;;;22.00;99.90;;;23.39;64.01;100179.31;4983849;28;20681;-70
2022/08/19 02:15:19;;;;;;;24.17;13.50;;;22.10;99.90;;;23.25;64.24;100172.31;4991370;28;20610;-68
2022/08/19 02:17:47;;;;;;;20.73;13.20;;;22.00;99.90;;;23.32;64.26;100175.81;4974428;28;20646;-68
2022/08/19 02:20:15;;;;;;;17.87;12.17;;;22.00;99.90;;;23.26;64.65;100184.56;4970631;28;20989;-68
2022/08/19 02:22:43;;;;;;;17.70;12.00;;;21.90;99.90;;;23.40;63.76;100178.28;4989353;28;20678;-68
2022/08/19 02:25:12;;;;;;;19.23;11.97;;;22.00;99.90;;;23.21;64.66;100181.72;4991791;28;20618;-69
2022/08/19 02:27:40;;;;;;;17.57;11.27;;;22.00;99.90;;;23.15;64.86;100186.81;4986028;28;21424;-68
2022/08/19 02:30:13;;;;;;;17.23;11.73;;;21.90;99.90;;;23.31;64.51;100179.47;4955933;28;20615;-69
2022/08/19 02:32:41;;;;;;;18.30;11.60;;;22.00;99.90;;;23.22;64.71;100188.66;4987453;28;20674;-69
2022/08/19 02:35:12;;;;;;;18.20;11.83;;;22.00;99.90;;;23.07;65.18;100180.88;4990303;28;20655;-69
2022/08/19 02:40:29;;;;;;;17.47;11.97;;;21.80;99.90;;;23.00;65.59;100193.31;4957231;28;21241;-69
2022/08/19 02:42:57;;;;;;;19.87;12.17;;;21.80;99.90;;;22.99;65.21;100195.19;4959794;28;20671;-69
2022/08/19 02:45:24;;;;;;;17.57;11.70;;;21.80;99.90;;;22.99;65.32;100191.69;4987847;28;20635;-67
2022/08/19 02:47:50;;;;;;;22.00;13.27;;;21.80;99.90;;;22.92;65.90;100186.34;4974186;28;20693;-68
2022/08/19 02:50:18;;;;;;;17.60;11.03;;;21.80;99.90;;;23.00;65.39;100191.50;4991030;28;20615;-69
2022/08/19 02:52:45;;;;;;;19.10;11.80;;;21.80;99.90;;;23.05;65.15;100194.38;4968512;28;20662;-68
2022/08/19 02:55:12;;;;;;;25.07;15.40;;;21.80;99.90;;;23.08;64.75;100193.16;4986278;28;21292;-68
2022/08/19 02:57:39;;;;;;;20.10;12.90;;;21.80;99.90;;;23.07;64.91;100196.81;4970888;28;21020;-68
2022/08/19 03:00:09;;;;;;;19.70;13.07;;;21.70;99.90;;;23.11;64.56;100193.56;4970911;28;20623;-70
2022/08/19 03:02:36;;;;;;;19.57;12.23;;;21.70;99.90;;;23.11;64.89;100190.91;4980843;28;20685;-69
2022/08/19 03:05:05;;;;;;;16.20;10.80;;;21.80;99.90;;;23.14;64.42;100203.00;4990452;28;20630;-68
2022/08/19 03:07:32;;;;;;;18.60;12.20;;;21.80;99.90;;;23.20;64.81;100201.34;4973684;28;20632;-68
2022/08/19 03:09:59;;;;;;;17.17;11.50;;;21.80;99.90;;;23.20;64.28;100201.34;4970280;28;20643;-70
2022/08/19 03:12:26;;;;;;;18.43;12.30;;;21.80;99.90;;;23.21;64.45;100200.34;4986910;28;20662;-71
2022/08/19 03:14:53;;;;;;;16.47;11.73;;;21.80;99.90;;;23.17;64.53;100200.75;4986423;28;21214;-68
2022/08/19 03:17:20;;;;;;;16.77;10.80;;;21.80;99.90;;;23.17;64.87;100190.09;4971790;28;20635;-68
2022/08/19 03:19:47;;;;;;;28.00;12.17;;;21.80;99.90;;;23.06;65.16;100192.53;4990364;28;21178;-68
2022/08/19 03:22:14;;;;;;;14.93;10.13;;;21.80;99.90;;;23.05;65.23;100189.06;4982367;28;20680;-68
2022/08/19 03:24:41;;;;;;;17.30;10.20;;;21.70;99.90;;;23.10;65.77;100180.47;4988357;28;20660;-69
2022/08/19 03:27:08;;;;;;;19.60;13.27;;;21.70;99.90;;;23.02;65.95;100189.44;4989827;28;20603;-68
2022/08/19 03:29:38;;;;;;;19.27;12.00;;;21.80;99.90;;;23.04;65.98;100191.94;4981097;28;21008;-69
2022/08/19 03:32:10;;;;;;;16.17;10.87;;;21.70;99.90;;;22.89;66.41;100194.72;4989102;28;20824;-69
2022/08/19 03:34:57;;;;;;;18.50;10.67;;;21.60;99.90;;;22.88;66.01;100198.41;4984382;28;20607;-69
2022/08/19 03:37:24;;;;;;;19.77;11.70;;;21.60;99.90;;;22.90;66.20;100196.38;4989159;28;20635;-68
2022/08/19 03:39:51;;;;;;;20.33;12.40;;;21.60;99.90;;;22.80;66.42;100201.28;4979253;28;20643;-69
2022/08/19 03:42:18;;;;;;;20.00;12.40;;;21.50;99.90;;;22.77;66.71;100201.66;4970925;28;20674;-68
2022/08/19 03:45:07;;;;;;;18.10;10.57;;;21.50;99.90;;;22.85;66.43;100201.47;4979734;28;20622;-68
2022/08/19 03:47:34;;;;;;;14.87;10.50;;;21.50;99.90;;;22.79;66.39;100196.94;4980167;28;21410;-68
2022/08/19 03:50:01;;;;;;;19.80;10.30;;;21.50;99.90;;;22.75;66.83;100205.53;4974640;28;21213;-68
2022/08/19 03:52:28;;;;;;;18.87;11.60;;;21.50;99.90;;;22.85;66.00;100200.66;4975079;28;20764;-68
2022/08/19 03:54:55;;;;;;;17.80;11.57;;;21.50;99.90;;;22.83;66.39;100202.72;4978830;28;20633;-68
2022/08/19 03:57:22;;;;;;;21.57;12.07;;;21.50;99.90;;;22.91;66.07;100207.84;4977746;28;20966;-68
2022/08/19 03:59:57;;;;;;;16.33;11.27;;;21.60;99.90;;;22.83;66.12;100210.69;4995113;28;20684;-68
2022/08/19 04:02:41;;;;;;;17.60;10.80;;;21.60;99.90;;;22.74;66.43;100206.56;4991658;28;20678;-70
2022/08/19 04:05:23;;;;;;;17.43;11.57;;;21.50;99.90;;;22.74;66.33;100211.88;4993386;28;20623;-66
2022/08/19 04:07:54;;;;;;;20.60;10.50;;;21.50;99.90;;;22.72;66.37;100209.41;4980379;28;20718;-70
2022/08/19 04:10:22;;;;;;;16.97;10.93;;;21.40;99.90;;;22.61;66.78;100206.50;4975390;28;20651;-71
2022/08/19 04:12:49;;;;;;;17.80;10.77;;;21.30;99.90;;;22.62;66.73;100203.63;4973408;28;20666;-67
2022/08/19 04:15:17;;;;;;;17.50;10.80;;;21.30;99.90;;;22.57;67.23;100205.22;4974234;28;20627;-69
2022/08/19 04:17:43;;;;;;;20.37;10.80;;;21.30;99.90;;;22.61;66.84;100202.00;4972659;28;21211;-71
2022/08/19 04:20:10;;;;;;;19.17;11.40;;;21.30;99.90;;;22.58;67.17;100201.53;4974621;28;20616;-70
2022/08/19 04:22:37;;;;;;;15.33;10.87;;;21.30;99.90;;;22.61;66.82;100207.31;4973665;28;20674;-68
2022/08/19 04:25:05;;;;;;;15.47;11.00;;;21.30;99.90;;;22.59;66.92;100209.38;4975331;28;20615;-68
2022/08/19 04:27:33;;;;;;;14.70;10.47;;;21.30;99.90;;;22.56;67.08;100212.38;4974193;28;20615;-70
2022/08/19 04:30:00;;;;;;;17.97;11.20;;;21.30;99.90;;;22.64;66.67;100211.41;4975195;28;20615;-70
2022/08/19 04:32:26;;;;;;;17.13;12.20;;;21.30;99.90;;;22.58;67.00;100206.84;4976128;28;20690;-68
2022/08/19 04:34:58;;;;;;;17.07;10.37;;;21.30;99.90;;;22.68;66.48;100207.34;4975189;28;20615;-68
2022/08/19 04:37:43;;;;;;;18.17;11.53;;;21.30;99.90;;;22.73;66.35;100199.59;4992542;28;20737;-68
2022/08/19 04:42:56;;;;;;;17.93;11.50;;;21.30;99.90;;;22.68;66.38;100202.03;4979686;28;20667;-69
2022/08/19 04:45:23;;;;;;;16.70;11.27;;;21.30;99.90;;;22.78;65.92;100213.94;4973642;28;20972;-67
2022/08/19 04:47:59;;;;;;;15.47;10.50;;;21.40;99.90;;;22.83;65.33;100200.06;4966183;28;20630;-69
2022/08/19 04:50:46;;;;;;;21.33;12.30;;;21.40;99.90;;;22.85;65.37;100203.34;4980302;28;20619;-67
2022/08/19 04:53:12;;;;;;;17.77;11.60;;;21.50;99.90;;;22.87;65.13;100191.44;4993377;28;20614;-68
2022/08/19 04:55:42;;;;;;;20.80;11.70;;;21.50;99.90;;;22.85;65.40;100193.50;4993814;28;20985;-68
2022/08/19 04:58:09;;;;;;;16.80;10.67;;;21.50;99.90;;;22.90;65.14;100195.56;4993320;28;20614;-68
2022/08/19 05:00:39;;;;;;;16.70;12.23;;;21.50;99.90;;;23.02;64.56;100205.41;4988663;28;20654;-68
2022/08/19 05:03:07;;;;;;;16.80;11.90;;;21.60;99.90;;;23.06;64.77;100216.50;4987576;28;20697;-68
2022/08/19 05:05:38;;;;;;;17.20;10.63;;;21.60;99.90;;;23.11;64.14;100222.84;4986039;28;20634;-68
2022/08/19 05:08:20;;;;;;;18.03;12.67;;;21.70;99.90;;;23.11;64.23;100219.34;4991464;28;21085;-69
2022/08/19 05:10:57;;;;;;;20.57;13.03;;;21.70;99.90;;;23.09;63.95;100216.91;4978108;28;20638;-68
2022/08/19 05:13:25;;;;;;;21.23;12.10;;;21.80;99.90;;;23.19;64.04;100218.38;4992267;28;20629;-68
2022/08/19 05:15:58;;;;;;;16.53;11.97;;;21.80;99.90;;;23.19;64.18;100216.53;4989128;28;20622;-68
2022/08/19 05:24:01;;;;;;;17.70;12.20;;;22.00;99.90;;;23.47;63.08;100235.84;4991780;28;20666;-68
2022/08/19 05:26:29;;;;;;;16.07;11.50;;;22.00;99.90;;;23.46;62.79;100241.38;4991999;28;20611;-68
2022/08/19 05:28:56;;;;;;;19.33;14.30;;;22.10;99.90;;;23.43;62.87;100239.94;4980533;28;21033;-68
2022/08/19 05:31:22;;;;;;;17.60;12.00;;;22.10;99.90;;;23.60;62.46;100235.03;4971502;28;20761;-68
2022/08/19 05:33:50;;;;;;;16.90;12.10;;;22.20;99.90;;;23.65;62.56;100235.25;4972148;28;20608;-68
2022/08/19 05:36:18;;;;;;;25.80;13.43;;;22.30;99.90;;;23.78;61.94;100237.91;4972624;28;20619;-68
2022/08/19 05:38:47;;;;;;;17.50;12.97;;;22.40;99.90;;;23.99;61.63;100236.88;4955408;28;21163;-69
2022/08/19 05:41:15;;;;;;;15.07;11.20;;;22.50;99.90;;;24.27;60.53;100246.31;4972533;28;20638;-68
2022/08/19 05:43:42;;;;;;;18.53;12.30;;;22.80;99.90;;;24.65;59.07;100260.59;4989670;28;20663;-68
2022/08/19 05:46:19;;;;;;;17.50;11.93;;;23.10;99.90;;;25.04;57.88;100250.81;4992091;28;20634;-68
2022/08/19 05:48:56;;;;;;;17.40;13.13;;;23.40;99.90;;;25.40;56.99;100243.84;4993100;28;20633;-68
2022/08/19 05:51:24;;;;;;;16.53;11.87;;;23.80;99.90;;;25.57;56.54;100246.81;4993281;28;20643;-68
2022/08/19 05:53:55;;;;;;;13.50;10.30;;;24.10;99.90;;;25.76;55.62;100261.88;4971783;28;20640;-68
2022/08/19 05:56:22;;;;;;;15.03;10.60;;;24.20;99.90;;;25.83;55.54;100264.50;4982029;28;20653;-69
2022/08/19 05:58:49;;;;;;;14.57;10.87;;;24.30;99.90;;;25.96;55.21;100277.78;4974062;28;20646;-68
2022/08/19 06:01:18;;;;;;;15.73;10.90;;;24.30;99.90;;;26.41;54.23;100281.88;4971917;28;20635;-68
2022/08/19 06:03:47;;;;;;;13.80;10.63;;;24.60;99.90;;;26.72;52.92;100289.84;4984735;28;20670;-68
2022/08/19 06:06:16;;;;;;;11.97;9.10;;;24.90;99.90;;;27.12;52.02;100295.53;4990781;28;20607;-69
2022/08/19 06:08:48;;;;;;;13.83;10.97;;;25.10;99.90;;;27.22;51.37;100300.31;4973888;28;20646;-68
2022/08/19 06:11:44;;;;;;;14.13;10.30;;;25.40;99.90;;;27.62;50.43;100310.31;4971594;28;20662;-68
2022/08/19 06:14:16;;;;;;;10.93;8.87;;;25.60;99.90;;;27.78;49.69;100303.47;4971857;28;20711;-68
2022/08/19 06:16:44;;;;;;;15.37;10.40;;;25.80;99.90;;;27.65;50.03;100317.06;4971809;28;20649;-68
2022/08/19 06:19:16;;;;;;;12.63;9.43;;;25.80;99.70;;;27.57;50.22;100309.38;4971594;28;20622;-68
2022/08/19 06:21:47;;;;;;;12.23;9.30;;;25.70;99.70;;;27.44;50.34;100315.72;4970490;28;20671;-66
2022/08/19 06:24:18;;;;;;;10.63;8.60;;;25.70;99.80;;;27.39;50.83;100326.31;4972216;28;20675;-69
2022/08/19 06:26:50;;;;;;;12.97;9.47;;;25.70;99.90;;;27.51;50.79;100321.78;4971322;28;20614;-68
2022/08/19 06:29:22;;;;;;;12.03;8.70;;;25.70;99.90;;;28.00;49.71;100318.03;4971885;28;20678;-69
2022/08/19 06:31:54;;;;;;;9.93;8.70;;;25.80;99.70;;;28.63;48.11;100320.03;4990065;28;20676;-69
2022/08/19 06:34:21;;;;;;;11.40;9.33;;;26.20;99.20;;;28.96;47.00;100317.53;4990937;28;20634;-69
2022/08/19 06:36:50;;;;;;;13.50;8.60;;;26.50;98.80;;;29.11;46.50;100321.31;4982135;28;20711;-68
2022/08/19 06:39:23;;;;;;;11.80;8.77;;;26.60;98.30;;;29.27;46.37;100327.84;4971137;28;20615;-68
2022/08/19 06:41:54;;;;;;;10.30;8.33;;;26.80;98.20;;;29.21;46.29;100323.44;4971566;28;20676;-67
2022/08/19 06:44:28;;;;;;;9.90;8.00;;;26.90;97.80;;;29.69;45.44;100325.66;4954426;28;20663;-69
2022/08/19 06:46:57;;;;;;;11.67;8.17;;;27.10;97.40;;;30.56;43.92;100327.69;4980159;28;20639;-68
2022/08/19 06:49:27;;;;;;;13.43;8.40;;;27.60;96.90;;;31.45;41.94;100322.09;4994286;28;20651;-69
2022/08/19 06:51:56;;;;;;;10.67;8.17;;;28.20;96.20;;;32.23;40.26;100316.88;5000066;28;20642;-69
2022/08/19 06:54:23;;;;;;;8.90;7.73;;;28.80;95.10;;;32.69;39.22;100326.13;5008155;28;20611;-70
2022/08/19 06:57:01;;;;;;;11.37;8.20;;;29.30;94.20;;;32.65;38.89;100327.69;4991621;28;20718;-70
2022/08/19 06:59:32;;;;;;;10.50;8.10;;;29.40;93.20;;;31.90;40.35;100322.53;4989564;28;21067;-69
2022/08/19 07:02:05;;;;;;;12.40;8.20;;;29.20;93.20;;;31.26;41.53;100330.50;4983968;28;20659;-69
2022/08/19 07:04:34;;;;;;;12.43;8.50;;;28.80;93.40;;;31.18;42.06;100330.13;4986124;28;20697;-69
2022/08/19 07:07:12;;;;;;;15.03;9.07;;;28.70;93.70;;;30.98;42.58;100325.31;4961112;28;20631;-69
2022/08/19 07:09:47;;;;;;;13.13;8.97;;;28.60;93.70;;;30.96;42.82;100319.38;4975717;28;20658;-69
2022/08/19 07:12:34;;;;;;;9.87;8.70;;;28.50;93.80;;;31.50;41.50;100322.97;4973259;28;21055;-69
2022/08/19 07:15:05;;;;;;;12.60;8.50;;;28.80;93.50;;;31.47;41.11;100323.47;4985986;28;20662;-70
2022/08/19 07:17:32;;;;;;;13.23;10.00;;;28.80;93.30;;;31.17;42.02;100320.41;4984292;28;20627;-69
2022/08/19 07:20:01;;;;;;;9.43;8.03;;;28.80;93.30;;;31.36;41.74;100322.53;4971755;28;20628;-69
2022/08/19 07:22:35;;;;;;;9.80;7.80;;;28.90;92.90;;;31.67;41.26;100323.66;4957975;28;21181;-69
2022/08/19 07:25:05;;;;;;;9.70;8.70;;;29.30;92.70;;;32.06;40.60;100322.44;4975755;28;20627;-68
2022/08/19 07:27:32;;;;;;;10.07;8.90;;;29.50;92.50;;;32.41;39.88;100334.56;4967460;28;21233;-70
2022/08/19 07:30:00;;;;;;;8.20;7.40;;;29.70;91.80;;;33.54;38.54;100337.28;4973478;28;20740;-69
2022/08/19 07:32:27;;;;;;;8.00;7.07;;;30.40;91.40;;;35.04;35.62;100332.03;4955946;28;20665;-69
2022/08/19 07:34:55;;;;;;;10.87;7.87;;;31.30;90.40;;;36.32;33.28;100334.44;4973880;28;20723;-69
2022/08/19 07:37:26;;;;;;;10.27;7.57;;;32.20;88.10;;;36.62;32.82;100331.44;4968519;28;20631;-67
2022/08/19 07:40:00;;;;;;;2.10;1.90;;;32.80;84.70;;;36.24;33.04;100343.22;4993942;28;20629;-66
2022/08/19 07:42:29;;;;;;;7.83;7.07;;;32.80;82.50;;;36.37;32.62;100340.66;4994053;28;20649;-68
2022/08/19 07:44:57;;;;;;;8.97;7.73;;;32.80;82.20;;;35.60;33.75;100340.72;4977644;28;20775;-69
2022/08/19 07:47:24;;;;;;;9.60;8.03;;;32.50;80.80;;;36.15;33.27;100342.19;4975034;28;20609;-69
2022/08/19 07:50:11;;;;;;;10.50;7.37;;;32.50;81.30;;;35.46;34.12;100339.69;4991279;28;20958;-69
2022/08/19 07:52:39;;;;;;;7.53;6.77;;;32.20;81.10;;;36.13;33.10;100339.78;4994349;28;20630;-69
2022/08/19 07:55:08;;;;;;;7.93;7.13;;;32.20;81.10;;;38.08;30.40;100343.84;4994078;28;20638;-67
2022/08/19 07:57:55;;;;;;;10.93;8.97;;;33.50;79.40;;;38.17;29.67;100335.00;4975102;28;20626;-69
2022/08/19 08:00:23;;;;;;;10.00;8.30;;;34.00;75.80;;;36.82;31.92;100333.94;4990294;28;20737;-70
2022/08/19 08:02:54;;;;;;;10.53;8.10;;;33.50;76.30;;;36.82;31.86;100342.09;4988639;28;21288;-69
2022/08/19 08:11:00;;;;;;;9.37;8.47;;;32.70;76.70;;;36.15;32.49;100329.44;4976452;28;20735;-70
2022/08/19 08:13:27;;;;;;;8.00;5.30;;;32.80;76.10;;;37.41;31.12;100338.09;4987086;28;20648;-69
2022/08/19 08:15:56;;;;;;;8.50;7.17;;;33.40;75.00;;;38.37;30.24;100329.22;4993636;28;20653;-69
2022/08/19 08:18:24;;;;;;;10.03;7.60;;;33.80;74.60;;;39.41;28.09;100333.63;4978008;28;20641;-69
2022/08/19 08:20:57;;;;;;;8.87;6.87;;;34.40;72.20;;;40.46;27.01;100334.91;4991043;28;20633;-69
2022/08/19 08:23:25;;;;;;;8.50;7.53;;;35.10;70.80;;;41.03;25.83;100329.47;4974579;28;20659;-70
2022/08/19 08:25:57;;;;;;;9.20;8.30;;;35.70;68.70;;;40.43;26.20;100326.50;4955932;28;20611;-66
2022/08/19 08:28:25;;;;;;;10.87;7.63;;;35.60;67.70;;;40.41;26.33;100323.28;4974220;28;20620;-69
2022/08/19 08:30:57;;;;;;;8.53;7.70;;;35.70;66.80;;;39.06;27.56;100325.41;4982524;28;20622;-70
2022/08/19 08:33:29;;;;;;;7.83;6.87;;;35.00;67.00;;;38.48;29.07;100331.47;4990076;28;20634;-69
2022/08/19 08:36:08;;;;;;;8.77;7.37;;;34.20;68.40;;;38.70;28.84;100319.88;4982244;28;21098;-69
2022/08/19 08:38:36;;;;;;;9.60;8.43;;;34.10;68.40;;;39.77;26.92;100333.63;5005476;28;20647;-67
2022/08/19 08:41:33;;;;;;;8.97;8.17;;;34.60;68.00;;;41.12;25.59;100341.25;4970928;28;20635;-68
2022/08/19 08:44:04;;;;;;;7.83;7.03;;;35.40;66.50;;;41.63;25.19;100333.91;4978746;28;20811;-71
2022/08/19 08:46:45;;;;;;;7.80;6.50;;;36.10;65.10;;;42.56;24.06;100342.28;4980847;28;20706;-68
2022/08/19 08:49:38;;;;;;;8.50;6.00;;;36.80;63.80;;;44.24;22.00;100344.44;4987311;28;21250;-68
2022/08/19 08:52:15;;;;;;;9.00;7.07;;;37.90;61.80;;;41.75;24.43;100341.47;4976237;28;20662;-68
2022/08/19 08:54:47;;;;;;;7.93;7.23;;;37.10;61.20;;;42.42;23.87;100326.00;4970777;28;20693;-67
2022/08/19 08:57:43;;;;;;;8.20;7.50;;;37.30;61.00;;;42.36;24.13;100340.25;4992285;28;20626;-68
2022/08/19 09:00:18;;;;;;;8.77;7.80;;;37.20;60.50;;;43.05;22.94;100335.25;4993529;28;20649;-68
2022/08/19 09:02:45;;;;;;;9.77;8.90;;;37.50;60.20;;;43.79;22.01;100327.09;4991067;28;20736;-67
2022/08/19 09:05:19;;;;;;;7.80;7.00;;;38.30;58.30;;;43.55;22.51;100333.28;4992114;28;21320;-67
2022/08/19 09:08:13;;;;;;;11.50;8.43;;;38.20;58.90;;;42.56;23.66;100328.56;4978445;28;20636;-68
2022/08/19 09:10:54;;;;;;;8.67;7.97;;;38.10;57.90;;;40.58;25.94;100332.38;4975489;28;21048;-68
2022/08/19 09:14:04;;;;;;;10.13;9.17;;;37.40;58.30;;;37.68;29.51;100327.34;4961775;28;20639;-65
2022/08/19 09:16:31;;;;;;;12.57;8.80;;;35.40;60.30;;;35.24;32.71;100317.56;4972907;28;20654;-67
2022/08/19 09:19:04;;;;;;;9.43;6.50;;;33.60;63.80;;;38.12;29.06;100316.03;4972879;28;20634;-67
2022/08/19 09:21:34;;;;;;;8.13;7.40;;;34.10;64.20;;;37.40;29.82;100325.63;4963077;28;20724;-66
2022/08/19 09:24:04;;;;;;;8.57;6.80;;;34.00;63.90;;;37.11;30.13;100302.03;4986426;28;20663;-67
2022/08/19 09:26:32;;;;;;;10.13;8.83;;;33.80;63.70;;;35.04;33.00;100308.47;4977500;28;20651;-68
2022/08/19 09:29:14;;;;;;;8.90;8.00;;;32.90;64.70;;;33.80;35.23;100310.28;4972290;28;21135;-68
2022/08/19 09:31:43;;;;;;;8.33;7.63;;;31.90;67.20;;;33.08;36.66;100319.28;4977118;28;20660;-69
2022/08/19 09:34:10;;;;;;;8.00;7.20;;;31.10;69.00;;;34.57;34.94;100313.47;4981472;28;20638;-68
2022/08/19 09:36:52;;;;;;;10.80;9.90;;;31.40;69.00;;;34.73;33.90;100312.38;4975596;28;20714;-68
2022/08/19 09:39:20;;;;;;;10.63;9.00;;;31.60;68.50;;;36.82;30.42;100320.34;4987292;28;21196;-69
2022/08/19 09:41:49;;;;;;;13.10;8.57;;;32.50;67.40;;;38.32;29.07;100316.50;4975517;28;20670;-68
2022/08/19 09:44:17;;;;;;;7.00;6.40;;;33.40;65.70;;;40.16;26.19;100316.56;4990778;28;20658;-68
2022/08/19 09:46:46;;;;;;;8.50;7.80;;;34.60;63.90;;;40.10;26.29;100306.88;4992353;28;20677;-69
2022/08/19 09:49:16;;;;;;;8.23;7.33;;;35.10;62.40;;;42.32;23.54;100320.88;4992466;28;20630;-69
2022/08/19 09:51:44;;;;;;;7.10;6.50;;;36.20;61.60;;;43.64;22.43;100317.53;4992326;28;20634;-69
2022/08/19 09:54:17;;;;;;;7.37;6.67;;;37.20;59.80;;;42.70;23.09;100314.63;4989033;28;20619;-69
2022/08/19 09:56:52;;;;;;;9.27;8.00;;;37.30;58.20;;;41.53;24.42;100322.47;4986419;28;20682;-68
2022/08/19 09:59:19;;;;;;;10.17;8.87;;;36.40;59.00;;;41.42;24.53;100316.50;4991798;28;20642;-69
2022/08/19 10:01:46;;;;;;;5.40;4.90;;;36.00;59.60;;;41.62;24.42;100324.06;4986643;28;20650;-69
2022/08/19 10:04:13;;;;;;;8.20;7.50;;;36.10;59.70;;;43.21;22.34;100312.34;4978924;28;21085;-69
2022/08/19 10:06:49;;;;;;;8.53;7.70;;;36.80;58.90;;;44.28;21.05;100323.34;4984250;28;20618;-68
2022/08/19 10:09:21;;;;;;;9.27;8.37;;;37.90;57.20;;;44.03;21.50;100309.91;4973176;28;20645;-69
2022/08/19 10:12:02;;;;;;;8.60;7.80;;;38.50;55.70;;;42.17;23.23;100309.66;4983758;28;20639;-69
2022/08/19 10:14:30;;;;;;;8.17;7.57;;;38.00;56.10;;;39.79;26.29;100309.53;4988337;28;21041;-69
2022/08/19 10:16:57;;;;;;;9.33;8.53;;;36.60;57.50;;;40.75;25.03;100315.19;4984897;28;20637;-69
2022/08/19 10:19:25;;;;;;;7.73;7.03;;;36.30;58.50;;;42.51;22.96;100312.28;4984760;28;20711;-69
2022/08/19 10:21:53;;;;;;;8.37;7.77;;;37.10;57.50;;;42.81;22.43;100319.38;4973551;28;20651;-69
2022/08/19 10:24:27;;;;;;;7.70;7.00;;;37.40;57.20;;;41.70;24.21;100319.75;4985519;28;21047;-67
2022/08/19 10:26:55;;;;;;;10.23;9.00;;;37.00;57.30;;;40.63;25.16;100315.00;4974583;28;20623;-67
2022/08/19 10:29:29;;;;;;;10.13;9.27;;;36.70;57.60;;;38.52;27.27;100305.22;4991830;28;20615;-70
2022/08/19 10:32:04;;;;;;;11.70;10.57;;;35.60;58.30;;;36.35;30.44;100304.81;5045836;23;21046;-65
2022/08/19 10:34:39;;;;;;;8.40;7.70;;;34.20;60.10;;;36.65;30.17;100305.59;4964897;28;20628;-66
2022/08/19 10:37:18;;;;;;;10.87;9.73;;;33.90;61.10;;;36.08;31.05;100298.28;4981454;28;20620;-67
2022/08/19 10:39:57;;;;;;;8.70;8.00;;;33.50;61.30;;;35.56;31.30;100297.06;4975665;28;20623;-68